sensor_id;sensor_type;location;lat;lon;timestamp;temperature;humidity
17370;DHT22;8802;52.402;4.920;2023-01-15T00:01:35;11.00;99.60
17370;DHT22;8802;52.402;4.920;2023-01-15T00:04:03;11.00;99.40
17370;DHT22;8802;52.402;4.920;2023-01-15T00:06:33;11.00;99.60
17370;DHT22;8802;52.402;4.920;2023-01-15T00:09:02;11.00;99.70
17370;DHT22;8802;52.402;4.920;2023-01-15T00:11:29;11.00;99.40
17370;DHT22;8802;52.402;4.920;2023-01-15T00:13:56;10.90;99.40
17370;DHT22;8802;52.402;4.920;2023-01-15T00:16:25;11.00;99.50
17370;DHT22;8802;52.402;4.920;2023-01-15T00:18:53;11.00;99.50
17370;DHT22;8802;52.402;4.920;2023-01-15T00:21:20;11.00;99.70
17370;DHT22;8802;52.402;4.920;2023-01-15T00:23:47;10.90;99.50
17370;DHT22;8802;52.402;4.920;2023-01-15T00:26:45;10.90;99.50
17370;DHT22;8802;52.402;4.920;2023-01-15T00:29:31;10.90;99.50
17370;DHT22;8802;52.402;4.920;2023-01-15T00:32:01;10.90;99.40
17370;DHT22;8802;52.402;4.920;2023-01-15T00:34:28;10.90;99.40
17370;DHT22;8802;52.402;4.920;2023-01-15T00:36:55;10.90;99.10
17370;DHT22;8802;52.402;4.920;2023-01-15T00:39:22;10.90;99.20
17370;DHT22;8802;52.402;4.920;2023-01-15T00:41:50;10.90;99.30
17370;DHT22;8802;52.402;4.920;2023-01-15T00:44:18;10.90;99.10
17370;DHT22;8802;52.402;4.920;2023-01-15T00:46:45;10.90;99.00
17370;DHT22;8802;52.402;4.920;2023-01-15T00:49:12;10.90;98.80
17370;DHT22;8802;52.402;4.920;2023-01-15T00:51:38;10.90;99.00
17370;DHT22;8802;52.402;4.920;2023-01-15T00:54:05;10.90;99.00
17370;DHT22;8802;52.402;4.920;2023-01-15T00:56:32;10.90;98.90
17370;DHT22;8802;52.402;4.920;2023-01-15T00:59:01;10.90;99.10
17370;DHT22;8802;52.402;4.920;2023-01-15T01:01:29;10.80;99.10
17370;DHT22;8802;52.402;4.920;2023-01-15T01:03:56;10.90;99.10
17370;DHT22;8802;52.402;4.920;2023-01-15T01:06:22;10.90;99.20
17370;DHT22;8802;52.402;4.920;2023-01-15T01:08:49;10.90;99.00
17370;DHT22;8802;52.402;4.920;2023-01-15T01:11:18;10.90;98.90
17370;DHT22;8802;52.402;4.920;2023-01-15T01:13:46;10.80;98.90
17370;DHT22;8802;52.402;4.920;2023-01-15T01:16:26;10.80;99.10
17370;DHT22;8802;52.402;4.920;2023-01-15T01:18:55;10.90;99.00
17370;DHT22;8802;52.402;4.920;2023-01-15T01:21:24;10.80;99.00
17370;DHT22;8802;52.402;4.920;2023-01-15T01:23:51;10.80;98.90
17370;DHT22;8802;52.402;4.920;2023-01-15T01:26:18;10.80;98.90
17370;DHT22;8802;52.402;4.920;2023-01-15T01:28:48;10.90;99.00
17370;DHT22;8802;52.402;4.920;2023-01-15T01:31:15;10.80;99.00
17370;DHT22;8802;52.402;4.920;2023-01-15T01:33:44;10.80;99.00
17370;DHT22;8802;52.402;4.920;2023-01-15T01:36:10;10.80;99.00
17370;DHT22;8802;52.402;4.920;2023-01-15T01:38:37;10.80;99.00
17370;DHT22;8802;52.402;4.920;2023-01-15T01:41:04;10.80;99.00
17370;DHT22;8802;52.402;4.920;2023-01-15T01:43:52;10.90;99.10
17370;DHT22;8802;52.402;4.920;2023-01-15T01:46:19;10.80;98.80
17370;DHT22;8802;52.402;4.920;2023-01-15T01:48:50;10.80;99.00
17370;DHT22;8802;52.402;4.920;2023-01-15T01:51:19;10.80;99.00
17370;DHT22;8802;52.402;4.920;2023-01-15T01:53:48;10.80;99.20
17370;DHT22;8802;52.402;4.920;2023-01-15T01:56:15;10.80;99.00
17370;DHT22;8802;52.402;4.920;2023-01-15T01:58:44;10.80;98.90
17370;DHT22;8802;52.402;4.920;2023-01-15T02:01:14;10.80;99.00
17370;DHT22;8802;52.402;4.920;2023-01-15T02:03:40;10.80;98.80
17370;DHT22;8802;52.402;4.920;2023-01-15T02:06:10;10.80;98.60
17370;DHT22;8802;52.402;4.920;2023-01-15T02:08:38;10.90;98.80
17370;DHT22;8802;52.402;4.920;2023-01-15T02:11:06;10.80;98.90
17370;DHT22;8802;52.402;4.920;2023-01-15T02:13:36;10.80;98.70
17370;DHT22;8802;52.402;4.920;2023-01-15T02:16:10;10.80;98.70
17370;DHT22;8802;52.402;4.920;2023-01-15T02:18:43;10.80;98.40
17370;DHT22;8802;52.402;4.920;2023-01-15T02:21:22;10.80;98.80
17370;DHT22;8802;52.402;4.920;2023-01-15T02:24:04;10.80;98.60
17370;DHT22;8802;52.402;4.920;2023-01-15T02:27:07;10.80;98.60
17370;DHT22;8802;52.402;4.920;2023-01-15T02:29:50;10.80;98.40
17370;DHT22;8802;52.402;4.920;2023-01-15T02:32:30;10.80;98.40
17370;DHT22;8802;52.402;4.920;2023-01-15T02:35:04;10.80;98.60
17370;DHT22;8802;52.402;4.920;2023-01-15T02:37:36;10.80;98.60
17370;DHT22;8802;52.402;4.920;2023-01-15T02:40:06;10.80;98.70
17370;DHT22;8802;52.402;4.920;2023-01-15T02:42:35;10.80;98.50
17370;DHT22;8802;52.402;4.920;2023-01-15T02:45:05;10.80;98.70
17370;DHT22;8802;52.402;4.920;2023-01-15T02:47:36;10.80;98.60
17370;DHT22;8802;52.402;4.920;2023-01-15T02:50:06;10.80;98.40
17370;DHT22;8802;52.402;4.920;2023-01-15T02:52:37;10.80;98.60
17370;DHT22;8802;52.402;4.920;2023-01-15T02:55:10;10.80;98.20
17370;DHT22;8802;52.402;4.920;2023-01-15T02:57:42;10.80;98.20
17370;DHT22;8802;52.402;4.920;2023-01-15T03:00:14;10.80;98.30
17370;DHT22;8802;52.402;4.920;2023-01-15T03:02:45;10.70;98.10
17370;DHT22;8802;52.402;4.920;2023-01-15T03:05:17;10.70;98.20
17370;DHT22;8802;52.402;4.920;2023-01-15T03:07:48;10.70;98.30
17370;DHT22;8802;52.402;4.920;2023-01-15T03:10:17;10.70;98.00
17370;DHT22;8802;52.402;4.920;2023-01-15T03:12:48;10.70;98.00
17370;DHT22;8802;52.402;4.920;2023-01-15T03:15:39;10.70;97.80
17370;DHT22;8802;52.402;4.920;2023-01-15T03:18:27;10.70;97.60
17370;DHT22;8802;52.402;4.920;2023-01-15T03:20:58;10.70;98.00
17370;DHT22;8802;52.402;4.920;2023-01-15T03:23:28;10.70;97.90
17370;DHT22;8802;52.402;4.920;2023-01-15T03:25:55;10.70;97.90
17370;DHT22;8802;52.402;4.920;2023-01-15T03:28:25;10.70;98.40
17370;DHT22;8802;52.402;4.920;2023-01-15T03:30:53;10.70;98.40
17370;DHT22;8802;52.402;4.920;2023-01-15T03:33:20;10.70;98.60
17370;DHT22;8802;52.402;4.920;2023-01-15T03:35:49;10.70;98.80
17370;DHT22;8802;52.402;4.920;2023-01-15T03:38:19;10.70;98.20
17370;DHT22;8802;52.402;4.920;2023-01-15T03:40:51;10.70;98.50
17370;DHT22;8802;52.402;4.920;2023-01-15T03:43:21;10.70;98.40
17370;DHT22;8802;52.402;4.920;2023-01-15T03:46:13;10.70;98.40
17370;DHT22;8802;52.402;4.920;2023-01-15T03:48:50;10.70;98.40
17370;DHT22;8802;52.402;4.920;2023-01-15T03:51:23;10.70;98.20
17370;DHT22;8802;52.402;4.920;2023-01-15T03:53:53;10.70;98.30
17370;DHT22;8802;52.402;4.920;2023-01-15T03:56:26;10.70;98.40
17370;DHT22;8802;52.402;4.920;2023-01-15T03:58:59;10.70;98.00
17370;DHT22;8802;52.402;4.920;2023-01-15T04:01:33;10.60;98.40
17370;DHT22;8802;52.402;4.920;2023-01-15T04:04:01;10.70;98.00
17370;DHT22;8802;52.402;4.920;2023-01-15T04:06:30;10.60;98.00
17370;DHT22;8802;52.402;4.920;2023-01-15T04:08:58;10.60;97.90
17370;DHT22;8802;52.402;4.920;2023-01-15T04:11:26;10.70;98.20
17370;DHT22;8802;52.402;4.920;2023-01-15T04:13:53;10.70;98.60
17370;DHT22;8802;52.402;4.920;2023-01-15T04:16:24;10.70;98.50
17370;DHT22;8802;52.402;4.920;2023-01-15T04:18:53;10.70;98.20
17370;DHT22;8802;52.402;4.920;2023-01-15T04:21:20;10.70;98.30
17370;DHT22;8802;52.402;4.920;2023-01-15T04:23:47;10.70;98.40
17370;DHT22;8802;52.402;4.920;2023-01-15T04:26:14;10.70;98.40
17370;DHT22;8802;52.402;4.920;2023-01-15T04:28:41;10.70;98.40
17370;DHT22;8802;52.402;4.920;2023-01-15T04:31:07;10.60;98.30
17370;DHT22;8802;52.402;4.920;2023-01-15T04:33:34;10.80;98.20
17370;DHT22;8802;52.402;4.920;2023-01-15T04:36:03;10.70;98.10
17370;DHT22;8802;52.402;4.920;2023-01-15T04:38:30;10.70;98.00
17370;DHT22;8802;52.402;4.920;2023-01-15T04:41:00;10.70;98.30
17370;DHT22;8802;52.402;4.920;2023-01-15T04:43:44;10.70;98.40
17370;DHT22;8802;52.402;4.920;2023-01-15T04:46:36;10.70;98.30
17370;DHT22;8802;52.402;4.920;2023-01-15T04:49:03;10.70;98.10
17370;DHT22;8802;52.402;4.920;2023-01-15T04:51:31;10.70;98.30
17370;DHT22;8802;52.402;4.920;2023-01-15T04:54:01;10.70;98.20
17370;DHT22;8802;52.402;4.920;2023-01-15T04:56:28;10.70;98.20
17370;DHT22;8802;52.402;4.920;2023-01-15T04:58:55;10.70;98.40
17370;DHT22;8802;52.402;4.920;2023-01-15T05:01:24;10.70;97.70
17370;DHT22;8802;52.402;4.920;2023-01-15T05:03:51;10.70;97.50
17370;DHT22;8802;52.402;4.920;2023-01-15T05:06:18;10.70;97.60
17370;DHT22;8802;52.402;4.920;2023-01-15T05:08:46;10.70;97.70
17370;DHT22;8802;52.402;4.920;2023-01-15T05:11:13;10.60;97.40
17370;DHT22;8802;52.402;4.920;2023-01-15T05:13:40;10.60;97.40
17370;DHT22;8802;52.402;4.920;2023-01-15T05:16:09;10.60;97.80
17370;DHT22;8802;52.402;4.920;2023-01-15T05:18:36;10.60;97.70
17370;DHT22;8802;52.402;4.920;2023-01-15T05:21:04;10.70;97.70
17370;DHT22;8802;52.402;4.920;2023-01-15T05:23:31;10.60;97.30
17370;DHT22;8802;52.402;4.920;2023-01-15T05:26:02;10.60;97.30
17370;DHT22;8802;52.402;4.920;2023-01-15T05:28:28;10.60;97.20
17370;DHT22;8802;52.402;4.920;2023-01-15T05:30:55;10.60;97.30
17370;DHT22;8802;52.402;4.920;2023-01-15T05:33:22;10.60;97.10
17370;DHT22;8802;52.402;4.920;2023-01-15T05:35:49;10.50;96.80
17370;DHT22;8802;52.402;4.920;2023-01-15T05:38:16;10.50;96.60
17370;DHT22;8802;52.402;4.920;2023-01-15T05:40:42;10.50;96.50
17370;DHT22;8802;52.402;4.920;2023-01-15T05:43:11;10.50;96.70
17370;DHT22;8802;52.402;4.920;2023-01-15T05:45:37;10.50;96.40
17370;DHT22;8802;52.402;4.920;2023-01-15T05:48:04;10.50;96.10
17370;DHT22;8802;52.402;4.920;2023-01-15T05:50:31;10.40;96.00
17370;DHT22;8802;52.402;4.920;2023-01-15T05:52:58;10.40;96.00
17370;DHT22;8802;52.402;4.920;2023-01-15T05:55:25;10.40;96.00
17370;DHT22;8802;52.402;4.920;2023-01-15T05:57:52;10.40;96.20
17370;DHT22;8802;52.402;4.920;2023-01-15T06:00:21;10.30;96.40
17370;DHT22;8802;52.402;4.920;2023-01-15T06:02:48;10.40;96.00
17370;DHT22;8802;52.402;4.920;2023-01-15T06:05:16;10.30;96.30
17370;DHT22;8802;52.402;4.920;2023-01-15T06:07:46;10.30;96.50
17370;DHT22;8802;52.402;4.920;2023-01-15T06:10:15;10.30;96.50
17370;DHT22;8802;52.402;4.920;2023-01-15T06:12:42;10.30;96.20
17370;DHT22;8802;52.402;4.920;2023-01-15T06:15:10;10.30;96.60
17370;DHT22;8802;52.402;4.920;2023-01-15T06:17:38;10.30;96.50
17370;DHT22;8802;52.402;4.920;2023-01-15T06:20:06;10.30;96.30
17370;DHT22;8802;52.402;4.920;2023-01-15T06:22:33;10.20;96.30
17370;DHT22;8802;52.402;4.920;2023-01-15T06:25:00;10.30;96.10
17370;DHT22;8802;52.402;4.920;2023-01-15T06:27:27;10.20;96.00
17370;DHT22;8802;52.402;4.920;2023-01-15T06:29:54;10.20;96.10
17370;DHT22;8802;52.402;4.920;2023-01-15T06:32:24;10.20;96.50
17370;DHT22;8802;52.402;4.920;2023-01-15T06:34:52;10.10;96.60
17370;DHT22;8802;52.402;4.920;2023-01-15T06:37:19;10.10;96.40
17370;DHT22;8802;52.402;4.920;2023-01-15T06:39:46;10.10;96.60
17370;DHT22;8802;52.402;4.920;2023-01-15T06:42:12;10.10;96.70
17370;DHT22;8802;52.402;4.920;2023-01-15T06:44:57;10.10;96.60
17370;DHT22;8802;52.402;4.920;2023-01-15T06:47:41;10.10;96.80
17370;DHT22;8802;52.402;4.920;2023-01-15T06:50:10;10.10;96.40
17370;DHT22;8802;52.402;4.920;2023-01-15T06:52:36;10.00;96.20
17370;DHT22;8802;52.402;4.920;2023-01-15T06:55:04;10.10;96.40
17370;DHT22;8802;52.402;4.920;2023-01-15T06:57:31;10.00;96.50
17370;DHT22;8802;52.402;4.920;2023-01-15T06:59:58;10.00;96.50
17370;DHT22;8802;52.402;4.920;2023-01-15T07:02:24;10.00;96.60
17370;DHT22;8802;52.402;4.920;2023-01-15T07:04:51;10.00;96.80
17370;DHT22;8802;52.402;4.920;2023-01-15T07:07:20;10.00;96.60
17370;DHT22;8802;52.402;4.920;2023-01-15T07:09:47;10.00;96.40
17370;DHT22;8802;52.402;4.920;2023-01-15T07:12:13;10.00;96.30
17370;DHT22;8802;52.402;4.920;2023-01-15T07:14:40;10.00;96.50
17370;DHT22;8802;52.402;4.920;2023-01-15T07:17:07;10.00;96.60
17370;DHT22;8802;52.402;4.920;2023-01-15T07:19:34;9.90;96.90
17370;DHT22;8802;52.402;4.920;2023-01-15T07:22:01;10.00;97.00
17370;DHT22;8802;52.402;4.920;2023-01-15T07:24:29;10.00;97.10
17370;DHT22;8802;52.402;4.920;2023-01-15T07:26:56;10.00;96.80
17370;DHT22;8802;52.402;4.920;2023-01-15T07:29:23;10.00;96.80
17370;DHT22;8802;52.402;4.920;2023-01-15T07:31:50;10.00;96.90
17370;DHT22;8802;52.402;4.920;2023-01-15T07:34:17;10.00;97.10
17370;DHT22;8802;52.402;4.920;2023-01-15T07:36:44;10.00;96.90
17370;DHT22;8802;52.402;4.920;2023-01-15T07:39:11;10.00;97.00
17370;DHT22;8802;52.402;4.920;2023-01-15T07:41:40;10.10;97.50
17370;DHT22;8802;52.402;4.920;2023-01-15T07:44:24;10.00;96.90
17370;DHT22;8802;52.402;4.920;2023-01-15T07:47:16;10.00;97.40
17370;DHT22;8802;52.402;4.920;2023-01-15T07:50:01;10.00;97.30
17370;DHT22;8802;52.402;4.920;2023-01-15T07:52:28;10.00;97.50
17370;DHT22;8802;52.402;4.920;2023-01-15T07:54:55;10.00;97.80
17370;DHT22;8802;52.402;4.920;2023-01-15T07:57:23;10.00;97.90
17370;DHT22;8802;52.402;4.920;2023-01-15T07:59:50;10.00;97.90
17370;DHT22;8802;52.402;4.920;2023-01-15T08:02:17;10.00;97.90
17370;DHT22;8802;52.402;4.920;2023-01-15T08:04:44;10.00;98.20
17370;DHT22;8802;52.402;4.920;2023-01-15T08:07:13;10.00;98.10
17370;DHT22;8802;52.402;4.920;2023-01-15T08:09:40;10.00;98.10
17370;DHT22;8802;52.402;4.920;2023-01-15T08:12:07;10.00;98.00
17370;DHT22;8802;52.402;4.920;2023-01-15T08:14:52;10.00;98.10
17370;DHT22;8802;52.402;4.920;2023-01-15T08:17:37;10.00;98.10
17370;DHT22;8802;52.402;4.920;2023-01-15T08:20:05;10.00;98.30
17370;DHT22;8802;52.402;4.920;2023-01-15T08:22:33;10.00;98.40
17370;DHT22;8802;52.402;4.920;2023-01-15T08:25:00;10.00;98.60
17370;DHT22;8802;52.402;4.920;2023-01-15T08:27:27;10.00;98.60
17370;DHT22;8802;52.402;4.920;2023-01-15T08:29:56;9.90;98.40
17370;DHT22;8802;52.402;4.920;2023-01-15T08:32:24;9.90;98.50
17370;DHT22;8802;52.402;4.920;2023-01-15T08:34:51;10.00;98.60
17370;DHT22;8802;52.402;4.920;2023-01-15T08:37:17;9.90;98.60
17370;DHT22;8802;52.402;4.920;2023-01-15T08:39:44;9.90;98.60
17370;DHT22;8802;52.402;4.920;2023-01-15T08:42:11;9.90;99.00
17370;DHT22;8802;52.402;4.920;2023-01-15T08:44:38;9.90;99.20
17370;DHT22;8802;52.402;4.920;2023-01-15T08:47:06;9.90;98.80
17370;DHT22;8802;52.402;4.920;2023-01-15T08:49:33;9.90;99.00
17370;DHT22;8802;52.402;4.920;2023-01-15T08:52:00;9.90;99.20
17370;DHT22;8802;52.402;4.920;2023-01-15T08:54:27;9.90;99.60
17370;DHT22;8802;52.402;4.920;2023-01-15T08:56:54;9.80;99.20
17370;DHT22;8802;52.402;4.920;2023-01-15T08:59:21;9.80;99.30
17370;DHT22;8802;52.402;4.920;2023-01-15T09:01:48;9.80;99.40
17370;DHT22;8802;52.402;4.920;2023-01-15T09:04:18;9.80;99.20
17370;DHT22;8802;52.402;4.920;2023-01-15T09:06:46;9.80;99.20
17370;DHT22;8802;52.402;4.920;2023-01-15T09:09:14;9.80;99.50
17370;DHT22;8802;52.402;4.920;2023-01-15T09:11:43;9.80;99.60
17370;DHT22;8802;52.402;4.920;2023-01-15T09:14:12;9.80;99.70
17370;DHT22;8802;52.402;4.920;2023-01-15T09:16:39;9.80;99.70
17370;DHT22;8802;52.402;4.920;2023-01-15T09:19:06;9.80;99.70
17370;DHT22;8802;52.402;4.920;2023-01-15T09:21:35;9.80;99.80
17370;DHT22;8802;52.402;4.920;2023-01-15T09:24:01;9.90;99.80
17370;DHT22;8802;52.402;4.920;2023-01-15T09:26:30;9.90;99.70
17370;DHT22;8802;52.402;4.920;2023-01-15T09:28:57;9.90;99.70
17370;DHT22;8802;52.402;4.920;2023-01-15T09:31:25;9.90;99.90
17370;DHT22;8802;52.402;4.920;2023-01-15T09:33:52;9.90;99.90
17370;DHT22;8802;52.402;4.920;2023-01-15T09:36:22;9.90;99.80
17370;DHT22;8802;52.402;4.920;2023-01-15T09:38:51;9.90;99.90
17370;DHT22;8802;52.402;4.920;2023-01-15T09:41:18;10.00;99.80
17370;DHT22;8802;52.402;4.920;2023-01-15T09:44:17;10.00;99.60
17370;DHT22;8802;52.402;4.920;2023-01-15T09:46:55;10.10;99.40
17370;DHT22;8802;52.402;4.920;2023-01-15T09:49:33;10.10;99.40
17370;DHT22;8802;52.402;4.920;2023-01-15T09:52:11;10.10;99.40
17370;DHT22;8802;52.402;4.920;2023-01-15T09:54:58;10.10;99.40
17370;DHT22;8802;52.402;4.920;2023-01-15T09:57:27;10.20;99.70
17370;DHT22;8802;52.402;4.920;2023-01-15T09:59:55;10.20;99.60
17370;DHT22;8802;52.402;4.920;2023-01-15T10:02:29;10.20;99.60
17370;DHT22;8802;52.402;4.920;2023-01-15T10:05:01;10.30;99.50
17370;DHT22;8802;52.402;4.920;2023-01-15T10:07:37;10.30;99.40
17370;DHT22;8802;52.402;4.920;2023-01-15T10:10:13;10.30;99.70
17370;DHT22;8802;52.402;4.920;2023-01-15T10:12:43;10.30;99.50
17370;DHT22;8802;52.402;4.920;2023-01-15T10:15:21;10.40;99.60
17370;DHT22;8802;52.402;4.920;2023-01-15T10:17:51;10.40;99.50
17370;DHT22;8802;52.402;4.920;2023-01-15T10:20:30;10.50;99.30
17370;DHT22;8802;52.402;4.920;2023-01-15T10:23:12;10.50;99.20
17370;DHT22;8802;52.402;4.920;2023-01-15T10:25:47;10.50;99.60
17370;DHT22;8802;52.402;4.920;2023-01-15T10:28:19;10.50;99.00
17370;DHT22;8802;52.402;4.920;2023-01-15T10:30:52;10.60;99.00
17370;DHT22;8802;52.402;4.920;2023-01-15T10:33:33;10.60;99.00
17370;DHT22;8802;52.402;4.920;2023-01-15T10:36:09;10.70;98.70
17370;DHT22;8802;52.402;4.920;2023-01-15T10:38:45;10.80;98.80
17370;DHT22;8802;52.402;4.920;2023-01-15T10:41:27;10.80;98.60
17370;DHT22;8802;52.402;4.920;2023-01-15T10:43:59;10.80;98.50
17370;DHT22;8802;52.402;4.920;2023-01-15T10:46:31;10.80;98.40
17370;DHT22;8802;52.402;4.920;2023-01-15T10:49:04;10.90;98.50
17370;DHT22;8802;52.402;4.920;2023-01-15T10:51:37;10.90;98.50
17370;DHT22;8802;52.402;4.920;2023-01-15T10:54:15;10.90;99.20
17370;DHT22;8802;52.402;4.920;2023-01-15T10:56:48;11.00;99.30
17370;DHT22;8802;52.402;4.920;2023-01-15T10:59:20;11.00;98.80
17370;DHT22;8802;52.402;4.920;2023-01-15T11:01:50;11.00;98.60
17370;DHT22;8802;52.402;4.920;2023-01-15T11:04:17;11.00;98.70
17370;DHT22;8802;52.402;4.920;2023-01-15T11:06:44;11.10;98.60
17370;DHT22;8802;52.402;4.920;2023-01-15T11:09:17;11.10;98.70
17370;DHT22;8802;52.402;4.920;2023-01-15T11:11:48;11.10;98.40
17370;DHT22;8802;52.402;4.920;2023-01-15T11:14:35;11.10;98.60
17370;DHT22;8802;52.402;4.920;2023-01-15T11:17:20;11.10;98.50
17370;DHT22;8802;52.402;4.920;2023-01-15T11:20:16;11.20;98.70
17370;DHT22;8802;52.402;4.920;2023-01-15T11:22:45;11.20;98.50
17370;DHT22;8802;52.402;4.920;2023-01-15T11:25:13;11.20;98.60
17370;DHT22;8802;52.402;4.920;2023-01-15T11:27:41;11.20;98.60
17370;DHT22;8802;52.402;4.920;2023-01-15T11:30:24;11.20;98.80
17370;DHT22;8802;52.402;4.920;2023-01-15T11:32:54;11.20;98.70
17370;DHT22;8802;52.402;4.920;2023-01-15T11:35:21;11.20;98.90
17370;DHT22;8802;52.402;4.920;2023-01-15T11:37:48;11.20;99.00
17370;DHT22;8802;52.402;4.920;2023-01-15T11:40:18;11.30;98.70
17370;DHT22;8802;52.402;4.920;2023-01-15T11:42:48;11.20;98.70
17370;DHT22;8802;52.402;4.920;2023-01-15T11:45:32;11.20;98.70
17370;DHT22;8802;52.402;4.920;2023-01-15T11:48:18;11.20;98.80
17370;DHT22;8802;52.402;4.920;2023-01-15T11:51:06;11.20;98.90
17370;DHT22;8802;52.402;4.920;2023-01-15T11:53:39;11.20;99.20
17370;DHT22;8802;52.402;4.920;2023-01-15T11:56:08;11.20;99.30
17370;DHT22;8802;52.402;4.920;2023-01-15T11:58:43;11.30;99.30
17370;DHT22;8802;52.402;4.920;2023-01-15T12:01:11;11.20;99.30
17370;DHT22;8802;52.402;4.920;2023-01-15T12:03:41;11.30;98.80
17370;DHT22;8802;52.402;4.920;2023-01-15T12:06:09;11.30;98.80
17370;DHT22;8802;52.402;4.920;2023-01-15T12:08:45;11.30;98.80
17370;DHT22;8802;52.402;4.920;2023-01-15T12:11:34;11.30;98.40
17370;DHT22;8802;52.402;4.920;2023-01-15T12:14:30;11.40;98.40
17370;DHT22;8802;52.402;4.920;2023-01-15T12:17:11;11.40;98.40
17370;DHT22;8802;52.402;4.920;2023-01-15T12:19:45;11.40;98.50
17370;DHT22;8802;52.402;4.920;2023-01-15T12:22:25;11.40;99.00
17370;DHT22;8802;52.402;4.920;2023-01-15T12:27:53;11.40;98.70
17370;DHT22;8802;52.402;4.920;2023-01-15T12:30:31;11.40;98.60
17370;DHT22;8802;52.402;4.920;2023-01-15T12:33:11;11.50;98.60
17370;DHT22;8802;52.402;4.920;2023-01-15T12:35:41;11.50;98.30
17370;DHT22;8802;52.402;4.920;2023-01-15T12:38:15;11.50;98.20
17370;DHT22;8802;52.402;4.920;2023-01-15T12:40:47;11.50;98.10
17370;DHT22;8802;52.402;4.920;2023-01-15T12:43:19;11.50;98.10
17370;DHT22;8802;52.402;4.920;2023-01-15T12:46:22;11.50;98.20
17370;DHT22;8802;52.402;4.920;2023-01-15T12:48:57;11.50;98.60
17370;DHT22;8802;52.402;4.920;2023-01-15T12:51:33;11.50;98.00
17370;DHT22;8802;52.402;4.920;2023-01-15T12:54:05;11.50;97.90
17370;DHT22;8802;52.402;4.920;2023-01-15T12:56:44;11.50;98.10
17370;DHT22;8802;52.402;4.920;2023-01-15T12:59:18;11.50;97.90
17370;DHT22;8802;52.402;4.920;2023-01-15T13:01:55;11.50;98.00
17370;DHT22;8802;52.402;4.920;2023-01-15T13:04:31;11.50;97.90
17370;DHT22;8802;52.402;4.920;2023-01-15T13:07:03;11.50;98.10
17370;DHT22;8802;52.402;4.920;2023-01-15T13:09:37;11.50;98.20
17370;DHT22;8802;52.402;4.920;2023-01-15T13:12:11;11.50;98.10
17370;DHT22;8802;52.402;4.920;2023-01-15T13:14:39;11.50;98.30
17370;DHT22;8802;52.402;4.920;2023-01-15T13:17:13;11.50;98.20
17370;DHT22;8802;52.402;4.920;2023-01-15T13:19:49;11.50;98.40
17370;DHT22;8802;52.402;4.920;2023-01-15T13:22:22;11.50;98.00
17370;DHT22;8802;52.402;4.920;2023-01-15T13:27:50;11.50;98.30
17370;DHT22;8802;52.402;4.920;2023-01-15T13:30:41;11.50;98.70
17370;DHT22;8802;52.402;4.920;2023-01-15T13:33:17;11.50;98.10
17370;DHT22;8802;52.402;4.920;2023-01-15T13:35:50;11.50;98.40
17370;DHT22;8802;52.402;4.920;2023-01-15T13:38:21;11.60;98.30
17370;DHT22;8802;52.402;4.920;2023-01-15T13:40:51;11.50;98.40
17370;DHT22;8802;52.402;4.920;2023-01-15T13:43:29;11.50;98.40
17370;DHT22;8802;52.402;4.920;2023-01-15T13:45:58;11.50;98.30
17370;DHT22;8802;52.402;4.920;2023-01-15T13:48:30;11.50;98.90
17370;DHT22;8802;52.402;4.920;2023-01-15T13:50:59;11.50;98.60
17370;DHT22;8802;52.402;4.920;2023-01-15T13:53:27;11.50;99.00
17370;DHT22;8802;52.402;4.920;2023-01-15T13:55:56;11.50;99.00
17370;DHT22;8802;52.402;4.920;2023-01-15T13:58:28;11.50;99.00
17370;DHT22;8802;52.402;4.920;2023-01-15T14:01:08;11.40;98.90
17370;DHT22;8802;52.402;4.920;2023-01-15T14:03:58;11.30;99.00
17370;DHT22;8802;52.402;4.920;2023-01-15T14:06:35;11.20;99.00
17370;DHT22;8802;52.402;4.920;2023-01-15T14:09:03;11.20;98.90
17370;DHT22;8802;52.402;4.920;2023-01-15T14:11:34;11.10;99.10
17370;DHT22;8802;52.402;4.920;2023-01-15T14:14:18;11.00;99.20
17370;DHT22;8802;52.402;4.920;2023-01-15T14:16:58;10.90;99.20
17370;DHT22;8802;52.402;4.920;2023-01-15T14:22:44;10.80;99.40
17370;DHT22;8802;52.402;4.920;2023-01-15T14:25:23;10.70;99.60
17370;DHT22;8802;52.402;4.920;2023-01-15T14:28:04;10.60;99.60
17370;DHT22;8802;52.402;4.920;2023-01-15T14:30:54;10.60;99.60
17370;DHT22;8802;52.402;4.920;2023-01-15T14:33:31;10.60;99.70
17370;DHT22;8802;52.402;4.920;2023-01-15T14:36:08;10.50;99.90
17370;DHT22;8802;52.402;4.920;2023-01-15T14:38:45;10.50;99.90
17370;DHT22;8802;52.402;4.920;2023-01-15T14:41:13;10.50;99.90
17370;DHT22;8802;52.402;4.920;2023-01-15T14:43:47;10.40;99.90
17370;DHT22;8802;52.402;4.920;2023-01-15T14:46:20;10.40;99.90
17370;DHT22;8802;52.402;4.920;2023-01-15T14:48:50;10.30;99.90
17370;DHT22;8802;52.402;4.920;2023-01-15T14:51:21;10.30;99.90
17370;DHT22;8802;52.402;4.920;2023-01-15T14:53:51;10.30;99.90
17370;DHT22;8802;52.402;4.920;2023-01-15T14:56:23;10.20;99.90
17370;DHT22;8802;52.402;4.920;2023-01-15T14:58:57;10.30;99.90
17370;DHT22;8802;52.402;4.920;2023-01-15T15:01:36;10.20;99.90
17370;DHT22;8802;52.402;4.920;2023-01-15T15:04:18;10.20;99.90
17370;DHT22;8802;52.402;4.920;2023-01-15T15:06:49;10.20;99.90
17370;DHT22;8802;52.402;4.920;2023-01-15T15:09:26;10.20;99.90
17370;DHT22;8802;52.402;4.920;2023-01-15T15:11:54;10.20;99.90
17370;DHT22;8802;52.402;4.920;2023-01-15T15:14:41;10.20;99.90
17370;DHT22;8802;52.402;4.920;2023-01-15T15:17:18;10.20;99.90
17370;DHT22;8802;52.402;4.920;2023-01-15T15:19:54;10.20;99.90
17370;DHT22;8802;52.402;4.920;2023-01-15T15:22:25;10.20;99.90
17370;DHT22;8802;52.402;4.920;2023-01-15T15:25:00;10.20;99.90
17370;DHT22;8802;52.402;4.920;2023-01-15T15:27:30;10.20;99.90
17370;DHT22;8802;52.402;4.920;2023-01-15T15:30:03;10.20;99.90
17370;DHT22;8802;52.402;4.920;2023-01-15T15:32:31;10.20;99.90
17370;DHT22;8802;52.402;4.920;2023-01-15T15:35:10;10.20;99.90
17370;DHT22;8802;52.402;4.920;2023-01-15T15:37:44;10.20;99.90
17370;DHT22;8802;52.402;4.920;2023-01-15T15:40:15;10.20;99.90
17370;DHT22;8802;52.402;4.920;2023-01-15T15:42:49;10.20;99.90
17370;DHT22;8802;52.402;4.920;2023-01-15T15:45:34;10.20;99.90
17370;DHT22;8802;52.402;4.920;2023-01-15T15:48:20;10.20;99.90
17370;DHT22;8802;52.402;4.920;2023-01-15T15:51:24;10.20;99.90
17370;DHT22;8802;52.402;4.920;2023-01-15T15:54:09;10.20;99.90
17370;DHT22;8802;52.402;4.920;2023-01-15T15:56:40;10.20;99.90
17370;DHT22;8802;52.402;4.920;2023-01-15T15:59:15;10.20;99.90
17370;DHT22;8802;52.402;4.920;2023-01-15T16:01:43;10.20;99.90
17370;DHT22;8802;52.402;4.920;2023-01-15T16:04:15;10.20;99.90
17370;DHT22;8802;52.402;4.920;2023-01-15T16:06:43;10.20;99.90
17370;DHT22;8802;52.402;4.920;2023-01-15T16:09:10;10.20;99.90
17370;DHT22;8802;52.402;4.920;2023-01-15T16:11:38;10.20;99.90
17370;DHT22;8802;52.402;4.920;2023-01-15T16:14:09;10.20;99.90
17370;DHT22;8802;52.402;4.920;2023-01-15T16:16:40;10.20;99.90
17370;DHT22;8802;52.402;4.920;2023-01-15T16:19:13;10.20;99.90
17370;DHT22;8802;52.402;4.920;2023-01-15T16:21:41;10.30;99.90
17370;DHT22;8802;52.402;4.920;2023-01-15T16:24:21;10.20;99.90
17370;DHT22;8802;52.402;4.920;2023-01-15T16:26:57;10.20;99.90